createdAt,value
2019-03-01T00:01:36.199Z,8.70
2019-03-01T00:05:54.850Z,8.30
2019-03-01T00:10:23.840Z,7.40
2019-03-01T00:15:05.817Z,7.60
2019-03-01T00:19:35.912Z,8.40
2019-03-01T00:23:51.888Z,7.67
2019-03-01T00:28:10.903Z,8.13
2019-03-01T00:32:41.860Z,8.30
2019-03-01T00:37:09.714Z,8.57
2019-03-01T00:41:25.705Z,8.20
2019-03-01T00:45:28.708Z,8.33
2019-03-01T00:49:31.774Z,8.23
2019-03-01T00:53:34.767Z,8.03
2019-03-01T00:57:37.769Z,9.00
2019-03-01T01:01:40.770Z,8.47
2019-03-01T01:05:46.288Z,7.50
2019-03-01T01:09:49.333Z,7.60
2019-03-01T01:13:52.333Z,7.67
2019-03-01T01:17:55.331Z,7.93
2019-03-01T01:21:58.366Z,6.53
2019-03-01T01:26:01.367Z,7.43
2019-03-01T01:30:08.227Z,6.60
2019-03-01T01:34:11.304Z,6.90
2019-03-01T01:38:14.310Z,6.77
2019-03-01T01:42:17.642Z,6.63
2019-03-01T01:46:20.639Z,6.70
2019-03-01T01:50:23.631Z,6.03
2019-03-01T01:54:26.631Z,7.00
2019-03-01T01:58:29.632Z,6.50
2019-03-01T02:02:32.635Z,5.70
2019-03-01T02:06:37.493Z,7.30
2019-03-01T02:10:40.504Z,6.73
2019-03-01T02:14:43.515Z,6.27
2019-03-01T02:18:46.519Z,6.73
2019-03-01T02:22:49.520Z,7.10
2019-03-01T02:27:13.003Z,6.60
2019-03-01T02:31:16.448Z,7.43
2019-03-01T02:35:19.517Z,8.17
2019-03-01T02:39:22.620Z,7.30
2019-03-01T02:43:25.733Z,8.27
2019-03-01T02:47:28.732Z,7.80
2019-03-01T02:51:31.830Z,8.43
2019-03-01T02:55:34.814Z,9.33
2019-03-01T02:59:37.809Z,10.60
2019-03-01T03:03:40.911Z,9.87
2019-03-01T03:07:47.523Z,9.30
2019-03-01T03:11:50.517Z,9.93
2019-03-01T03:15:54.087Z,10.97
2019-03-01T03:19:57.101Z,8.60
2019-03-01T03:24:00.112Z,9.93
2019-03-01T03:28:03.536Z,10.03
2019-03-01T03:32:06.850Z,10.30
2019-03-01T03:36:09.907Z,8.93
2019-03-01T03:40:14.216Z,9.17
2019-03-01T03:44:17.219Z,10.27
2019-03-01T03:48:20.272Z,10.50
2019-03-01T03:52:23.276Z,10.40
2019-03-01T03:56:26.332Z,10.73
2019-03-01T04:00:29.441Z,10.50
2019-03-01T04:04:32.608Z,9.97
2019-03-01T04:08:37.138Z,9.37
2019-03-01T04:12:40.178Z,10.63
2019-03-01T04:16:43.173Z,10.50
2019-03-01T04:20:46.192Z,11.23
2019-03-01T04:24:49.196Z,11.00
2019-03-01T04:28:52.212Z,9.93
2019-03-01T04:32:55.203Z,10.27
2019-03-01T04:36:58.261Z,9.90
2019-03-01T04:41:01.356Z,10.67
2019-03-01T04:45:07.363Z,10.57
2019-03-01T04:49:10.359Z,10.27
2019-03-01T04:53:13.363Z,10.10
2019-03-01T04:57:16.424Z,10.30
2019-03-01T05:01:19.432Z,9.43
2019-03-01T05:05:22.431Z,11.67
2019-03-01T05:09:27.419Z,11.10
2019-03-01T05:13:30.459Z,11.40
2019-03-01T05:17:33.469Z,11.27
2019-03-01T05:21:36.464Z,12.93
2019-03-01T05:25:39.456Z,12.47
2019-03-01T05:29:42.511Z,11.57
2019-03-01T05:33:45.650Z,11.73
2019-03-01T05:37:48.655Z,11.40
2019-03-01T05:41:51.664Z,12.90
2019-03-01T05:45:54.668Z,10.10
2019-03-01T05:49:57.669Z,12.87
2019-03-01T05:54:00.672Z,11.30
2019-03-01T05:58:19.464Z,9.60
2019-03-01T06:02:42.888Z,8.53
2019-03-01T06:06:58.599Z,10.10
2019-03-01T06:11:07.214Z,9.87
2019-03-01T06:15:23.096Z,9.70
2019-03-01T06:19:35.779Z,10.13
2019-03-01T06:23:48.786Z,10.43
2019-03-01T06:28:04.769Z,9.87
2019-03-01T06:32:20.904Z,9.33
2019-03-01T06:36:50.406Z,11.00
2019-03-01T06:41:20.247Z,10.10
2019-03-01T06:45:27.067Z,10.53
2019-03-01T06:49:31.967Z,11.57
2019-03-01T06:53:34.977Z,11.23
2019-03-01T06:57:37.978Z,11.30
2019-03-01T07:01:41.283Z,10.97
2019-03-01T07:05:44.638Z,9.63
2019-03-01T07:09:47.636Z,10.20
2019-03-01T07:13:51.111Z,10.00
2019-03-01T07:17:54.177Z,10.23
2019-03-01T07:21:57.184Z,10.10
2019-03-01T07:26:00.178Z,9.60
2019-03-01T07:30:06.394Z,10.10
2019-03-01T07:34:09.434Z,11.20
2019-03-01T07:38:12.546Z,10.53
2019-03-01T07:42:15.637Z,10.13
2019-03-01T07:46:18.639Z,11.33
2019-03-01T07:50:21.771Z,10.33
2019-03-01T07:54:25.254Z,11.00
2019-03-01T07:58:28.349Z,10.50
2019-03-01T08:02:31.474Z,9.40
2019-03-01T08:06:34.480Z,9.57
2019-03-01T08:10:37.487Z,8.83
2019-03-01T08:14:41.427Z,8.30
2019-03-01T08:18:45.263Z,8.60
2019-03-01T08:22:49.679Z,8.60
2019-03-01T08:26:53.027Z,8.90
2019-03-01T08:30:56.025Z,8.80
2019-03-01T08:34:59.032Z,7.20
2019-03-01T08:39:05.765Z,7.57
2019-03-01T08:43:12.991Z,6.50
2019-03-01T08:47:14.246Z,6.87
2019-03-01T08:51:17.647Z,6.80
2019-03-01T08:55:25.664Z,6.30
2019-03-01T08:59:28.669Z,6.53
2019-03-01T09:03:56.480Z,6.10
2019-03-01T09:07:59.483Z,6.03
2019-03-01T09:12:02.492Z,6.10
2019-03-01T09:16:06.725Z,5.20
2019-03-01T09:20:11.936Z,5.13
2019-03-01T09:24:14.949Z,5.83
2019-03-01T09:28:17.958Z,5.70
2019-03-01T09:32:21.021Z,7.10
2019-03-01T09:36:26.011Z,5.50
2019-03-01T09:40:29.723Z,4.23
2019-03-01T09:44:34.518Z,3.73
2019-03-01T09:48:38.237Z,3.87
2019-03-01T09:52:41.235Z,3.90
2019-03-01T09:56:44.245Z,3.80
2019-03-01T10:01:10.815Z,3.43
2019-03-01T10:05:13.881Z,3.23
2019-03-01T10:09:16.980Z,2.67
2019-03-01T10:13:21.389Z,2.87
2019-03-01T10:17:26.626Z,3.40
2019-03-01T10:21:29.633Z,4.00
2019-03-01T10:25:32.697Z,3.47
2019-03-01T10:29:35.683Z,3.70
2019-03-01T10:33:38.748Z,2.67
2019-03-01T10:37:42.153Z,3.13
2019-03-01T10:41:45.177Z,5.10
2019-03-01T10:45:48.188Z,5.63
2019-03-01T10:49:51.259Z,4.30
2019-03-01T10:53:54.359Z,4.40
2019-03-01T10:57:57.432Z,5.00
2019-03-01T11:02:00.577Z,8.27
2019-03-01T11:06:03.821Z,6.87
2019-03-01T11:10:28.141Z,5.03
2019-03-01T11:14:31.158Z,4.83
2019-03-01T11:18:34.609Z,4.33
2019-03-01T11:22:37.679Z,4.80
2019-03-01T11:26:40.777Z,5.93
2019-03-01T11:30:43.907Z,5.60
2019-03-01T11:34:46.969Z,5.87
2019-03-01T11:38:49.983Z,6.53
2019-03-01T11:42:52.997Z,5.53
2019-03-01T11:46:55.996Z,4.90
2019-03-01T11:50:59.053Z,5.60
2019-03-01T11:55:04.173Z,5.20
2019-03-01T11:59:07.176Z,5.40
2019-03-01T12:03:10.196Z,4.80
2019-03-01T12:07:13.314Z,5.43
2019-03-01T12:11:16.408Z,5.93
2019-03-01T12:15:19.722Z,5.97
2019-03-01T12:19:24.465Z,6.87
2019-03-01T12:23:27.540Z,7.10
2019-03-01T12:27:30.566Z,8.93
2019-03-01T12:31:33.644Z,8.60
2019-03-01T12:35:36.752Z,8.43
2019-03-01T12:39:39.756Z,9.97
2019-03-01T12:43:42.840Z,9.50
2019-03-01T12:47:45.843Z,11.60
2019-03-01T12:51:48.858Z,10.93
2019-03-01T12:55:51.941Z,12.20
2019-03-01T12:59:54.948Z,13.90
2019-03-01T13:03:58.001Z,15.93
2019-03-01T13:08:01.018Z,15.37
2019-03-01T13:12:04.007Z,15.83
2019-03-01T13:16:07.116Z,17.43
2019-03-01T13:20:15.210Z,20.53
2019-03-01T13:24:18.216Z,22.60
2019-03-01T13:28:21.219Z,21.27
2019-03-01T13:32:24.242Z,22.13
2019-03-01T13:36:27.239Z,33.60
2019-03-01T13:40:30.341Z,26.23
2019-03-01T13:44:36.156Z,27.57
2019-03-01T13:48:38.347Z,29.60
2019-03-01T13:52:41.684Z,32.57
2019-03-01T13:56:44.788Z,33.97
2019-03-01T14:00:48.747Z,34.23
2019-03-01T14:04:52.729Z,37.63
2019-03-01T14:08:55.760Z,35.93
2019-03-01T14:12:58.923Z,39.47
2019-03-01T14:17:02.007Z,39.50
2019-03-01T14:21:05.591Z,38.80
2019-03-01T14:25:12.934Z,36.57
2019-03-01T14:29:16.196Z,37.27
2019-03-01T14:33:20.182Z,36.20
2019-03-01T14:37:23.279Z,37.43
2019-03-01T14:41:26.279Z,37.03
2019-03-01T14:45:30.901Z,37.30
2019-03-01T14:49:33.969Z,43.30
2019-03-01T14:53:37.095Z,50.00
2019-03-01T14:57:43.118Z,44.13
2019-03-01T15:01:50.654Z,45.43
2019-03-01T15:05:53.677Z,49.50
2019-03-01T15:09:57.017Z,46.90
2019-03-01T15:14:01.399Z,48.53
2019-03-01T15:18:04.677Z,48.40
2019-03-01T15:22:09.686Z,50.80
2019-03-01T15:26:13.964Z,44.80
2019-03-01T15:30:17.180Z,47.90
2019-03-01T15:34:23.499Z,46.00
2019-03-01T15:38:27.647Z,43.33
2019-03-01T15:42:30.243Z,45.83
2019-03-01T15:46:33.294Z,42.67
2019-03-01T15:50:36.615Z,46.87
2019-03-01T15:54:39.645Z,48.60
2019-03-01T15:58:42.648Z,46.10
2019-03-01T16:02:45.699Z,44.17
2019-03-01T16:06:49.035Z,47.90
2019-03-01T16:10:52.155Z,47.27
2019-03-01T16:14:57.345Z,41.53
2019-03-01T16:19:00.208Z,42.20
2019-03-01T16:23:06.129Z,43.97
2019-03-01T16:27:12.047Z,40.53
2019-03-01T16:31:14.238Z,42.00
2019-03-01T16:35:19.556Z,39.40
2019-03-01T16:39:23.808Z,41.30
2019-03-01T16:43:28.545Z,41.60
2019-03-01T16:47:32.556Z,40.67
2019-03-01T16:51:35.564Z,40.63
2019-03-01T16:55:38.564Z,40.63
2019-03-01T16:59:42.828Z,36.53
2019-03-01T17:03:49.571Z,38.63
2019-03-01T17:07:51.505Z,39.10
2019-03-01T17:11:54.500Z,35.00
2019-03-01T17:15:57.496Z,43.13
2019-03-01T17:20:02.559Z,37.20
2019-03-01T17:24:07.580Z,38.87
2019-03-01T17:28:10.615Z,38.90
2019-03-01T17:32:13.611Z,36.53
2019-03-01T17:36:17.829Z,36.87
2019-03-01T17:40:21.248Z,35.53
2019-03-01T17:44:24.345Z,36.97
2019-03-01T17:48:27.347Z,38.07
2019-03-01T17:52:33.504Z,34.00
2019-03-01T17:56:36.698Z,38.40
2019-03-01T18:00:43.904Z,35.07
2019-03-01T18:04:47.267Z,31.87
2019-03-01T18:08:50.267Z,31.10
2019-03-01T18:12:56.173Z,30.70
2019-03-01T18:17:00.412Z,30.00
2019-03-01T18:21:03.211Z,30.17
2019-03-01T18:25:12.433Z,32.77
2019-03-01T18:29:15.451Z,32.77
2019-03-01T18:33:21.023Z,34.20
2019-03-01T18:37:23.362Z,31.20
2019-03-01T18:41:27.478Z,33.10
2019-03-01T18:45:31.265Z,35.20
2019-03-01T18:49:34.347Z,34.47
2019-03-01T18:53:37.348Z,32.17
2019-03-01T18:57:40.360Z,32.50
2019-03-01T19:01:46.436Z,30.20
2019-03-01T19:05:48.273Z,32.20
2019-03-01T19:09:52.129Z,34.77
2019-03-01T19:13:58.586Z,29.07
2019-03-01T19:18:02.072Z,28.70
2019-03-01T19:22:07.120Z,28.07
2019-03-01T19:26:11.323Z,26.80
2019-03-01T19:30:16.551Z,20.93
2019-03-01T19:34:19.884Z,22.63
2019-03-01T19:38:25.065Z,25.03
2019-03-01T19:42:29.519Z,22.00
2019-03-01T19:46:33.141Z,20.10
2019-03-01T19:50:36.196Z,18.17
2019-03-01T19:54:39.208Z,19.87
2019-03-01T19:58:44.161Z,17.97
2019-03-01T20:02:47.133Z,16.20
2019-03-01T20:06:50.137Z,16.80
2019-03-01T20:10:53.219Z,15.37
2019-03-01T20:14:56.218Z,19.13
2019-03-01T20:18:59.220Z,20.20
2019-03-01T20:23:02.229Z,22.20
2019-03-01T20:27:06.224Z,22.00
2019-03-01T20:31:09.228Z,24.40
2019-03-01T20:35:14.043Z,25.90
2019-03-01T20:39:17.265Z,24.27
2019-03-01T20:43:20.260Z,24.13
2019-03-01T20:47:23.267Z,24.33
2019-03-01T20:51:26.869Z,23.00
2019-03-01T20:55:33.118Z,24.53
2019-03-01T20:59:35.967Z,24.37
2019-03-01T21:03:38.971Z,23.80
2019-03-01T21:07:43.387Z,24.93
2019-03-01T21:11:46.386Z,23.00
2019-03-01T21:15:49.388Z,21.67
2019-03-01T21:19:52.435Z,22.40
2019-03-01T21:23:55.410Z,21.63
2019-03-01T21:28:00.946Z,24.60
2019-03-01T21:32:04.467Z,22.20
2019-03-01T21:36:07.475Z,22.93
2019-03-01T21:40:12.639Z,21.00
2019-03-01T21:44:15.827Z,23.17
2019-03-01T21:48:21.963Z,23.70
2019-03-01T21:52:26.550Z,20.17
2019-03-01T21:56:28.735Z,20.80
2019-03-01T22:00:32.037Z,20.57
2019-03-01T22:04:37.360Z,22.27
2019-03-01T22:08:40.028Z,23.10
2019-03-01T22:12:43.049Z,23.80
2019-03-01T22:16:46.129Z,20.63
2019-03-01T22:20:49.245Z,20.77
2019-03-01T22:24:52.562Z,20.70
2019-03-01T22:28:56.083Z,21.90
2019-03-01T22:32:59.087Z,21.67
2019-03-01T22:37:02.184Z,20.87
2019-03-01T22:41:05.247Z,22.67
2019-03-01T22:45:15.387Z,20.30
2019-03-01T22:49:18.413Z,23.60
2019-03-01T22:53:21.422Z,21.40
2019-03-01T22:57:25.942Z,21.77
2019-03-01T23:01:32.793Z,20.93
2019-03-01T23:05:39.172Z,23.03
2019-03-01T23:09:42.673Z,21.90
2019-03-01T23:13:46.267Z,21.63
2019-03-01T23:17:49.318Z,20.83
2019-03-01T23:21:52.422Z,20.97
2019-03-01T23:25:55.425Z,22.37
2019-03-01T23:30:00.412Z,21.60
2019-03-01T23:34:03.718Z,22.47
2019-03-01T23:38:11.472Z,23.50
2019-03-01T23:42:13.314Z,22.30
2019-03-01T23:46:16.324Z,24.77
2019-03-01T23:50:19.329Z,22.77
2019-03-01T23:54:22.340Z,21.70
2019-03-01T23:58:25.351Z,21.80
